Decoded Metar for KPOF (POPULAR BLUFF in MO, USA) (IATA:POF) | Meteo·Mobile Aviation Weather
aviador You're here:

KPOF Decoded Metar

POPULAR BLUFF in MO, USA
Report Time2018-12-13 03:12:00
UTC Time2018-12-13 03:31:49
Flight Rules vfr VFR
Wind180° at 05 kt
W.Decomp.*RWY 18: 5.0 kt HW -0 kt LCW
W.Rank180° ranks 4
Current wind is below 180° avg. (7.3)
Visibility9999 m
Phenomena:N/A
Clouds:Scattered 019 Hf
Overcast 032 Hf
Expected CloudBase > 1,200 ft AGL from Temp-Dew spread
Ceiling3,200 ft
Temp07°C (ISA -7)
Dew Point04°C (81% RH)
AAT3.9°C
QNH1016 hPa
Density Alt-548 ft
Elevation325 ft
Report Wrong Elevation
Raw Report
KPOF 130312Z AUTO 18005KT 10SM SCT019 OVC032 07/04 A2999=

Extra information for KPOF:More info

Metar Taf Metar & Taf Last 4 Metars F.Rules Stats Wind Profile Meteogram Temp Stats Airport Information Weather charts Add Link Nearby VenuesMetar ALERT Operation Metar Decoded Social comments

AIRNAV info for KPOF